sensor_id;sensor_type;location;lat;lon;timestamp;P1;durP1;ratioP1;P2;durP2;ratioP2
6757;SDS011;3416;53.074;8.822;2022-11-20T00:01:13;21.60;;;15.52;;
6757;SDS011;3416;53.074;8.822;2022-11-20T00:03:42;26.50;;;17.65;;
6757;SDS011;3416;53.074;8.822;2022-11-20T00:06:10;31.40;;;17.70;;
6757;SDS011;3416;53.074;8.822;2022-11-20T00:08:39;21.08;;;16.27;;
6757;SDS011;3416;53.074;8.822;2022-11-20T00:11:08;24.30;;;17.17;;
6757;SDS011;3416;53.074;8.822;2022-11-20T00:13:37;21.85;;;16.75;;
6757;SDS011;3416;53.074;8.822;2022-11-20T00:16:05;23.65;;;16.95;;
6757;SDS011;3416;53.074;8.822;2022-11-20T00:18:35;24.48;;;16.40;;
6757;SDS011;3416;53.074;8.822;2022-11-20T00:21:09;20.30;;;14.30;;
6757;SDS011;3416;53.074;8.822;2022-11-20T00:23:37;23.17;;;15.68;;
6757;SDS011;3416;53.074;8.822;2022-11-20T00:26:08;22.85;;;15.38;;
6757;SDS011;3416;53.074;8.822;2022-11-20T00:28:36;22.13;;;16.45;;
6757;SDS011;3416;53.074;8.822;2022-11-20T00:33:39;25.55;;;15.75;;
6757;SDS011;3416;53.074;8.822;2022-11-20T00:36:07;22.30;;;15.75;;
6757;SDS011;3416;53.074;8.822;2022-11-20T00:38:35;16.92;;;14.68;;
6757;SDS011;3416;53.074;8.822;2022-11-20T00:41:04;25.05;;;15.98;;
6757;SDS011;3416;53.074;8.822;2022-11-20T00:43:32;22.73;;;16.20;;
6757;SDS011;3416;53.074;8.822;2022-11-20T00:46:02;23.23;;;17.20;;
6757;SDS011;3416;53.074;8.822;2022-11-20T00:48:30;23.92;;;16.25;;
6757;SDS011;3416;53.074;8.822;2022-11-20T00:50:59;20.77;;;17.60;;
6757;SDS011;3416;53.074;8.822;2022-11-20T00:53:26;25.60;;;19.60;;
6757;SDS011;3416;53.074;8.822;2022-11-20T00:55:54;24.88;;;17.45;;
6757;SDS011;3416;53.074;8.822;2022-11-20T00:58:22;22.05;;;15.95;;
6757;SDS011;3416;53.074;8.822;2022-11-20T01:00:50;22.67;;;17.35;;
6757;SDS011;3416;53.074;8.822;2022-11-20T01:03:17;24.38;;;17.77;;
6757;SDS011;3416;53.074;8.822;2022-11-20T01:05:44;24.02;;;16.92;;
6757;SDS011;3416;53.074;8.822;2022-11-20T01:08:12;22.83;;;17.85;;
6757;SDS011;3416;53.074;8.822;2022-11-20T01:10:40;23.67;;;17.90;;
6757;SDS011;3416;53.074;8.822;2022-11-20T01:13:07;23.23;;;17.17;;
6757;SDS011;3416;53.074;8.822;2022-11-20T01:15:53;28.10;;;18.88;;
6757;SDS011;3416;53.074;8.822;2022-11-20T01:18:20;25.95;;;19.30;;
6757;SDS011;3416;53.074;8.822;2022-11-20T01:20:47;24.98;;;18.63;;
6757;SDS011;3416;53.074;8.822;2022-11-20T01:23:15;24.35;;;17.55;;
6757;SDS011;3416;53.074;8.822;2022-11-20T01:25:42;26.30;;;19.27;;
6757;SDS011;3416;53.074;8.822;2022-11-20T01:28:09;24.42;;;18.00;;
6757;SDS011;3416;53.074;8.822;2022-11-20T01:30:36;27.40;;;18.60;;
6757;SDS011;3416;53.074;8.822;2022-11-20T01:33:03;26.70;;;19.75;;
6757;SDS011;3416;53.074;8.822;2022-11-20T01:35:30;28.00;;;16.83;;
6757;SDS011;3416;53.074;8.822;2022-11-20T01:37:57;20.98;;;17.00;;
6757;SDS011;3416;53.074;8.822;2022-11-20T01:40:25;25.33;;;17.17;;
6757;SDS011;3416;53.074;8.822;2022-11-20T01:42:55;27.83;;;17.88;;
6757;SDS011;3416;53.074;8.822;2022-11-20T01:45:51;24.73;;;17.42;;
6757;SDS011;3416;53.074;8.822;2022-11-20T01:48:24;24.45;;;16.45;;
6757;SDS011;3416;53.074;8.822;2022-11-20T01:50:56;24.05;;;17.65;;
6757;SDS011;3416;53.074;8.822;2022-11-20T01:53:25;26.90;;;18.17;;
6757;SDS011;3416;53.074;8.822;2022-11-20T01:55:59;24.25;;;16.88;;
6757;SDS011;3416;53.074;8.822;2022-11-20T01:58:28;23.77;;;16.75;;
6757;SDS011;3416;53.074;8.822;2022-11-20T02:00:59;21.45;;;15.32;;
6757;SDS011;3416;53.074;8.822;2022-11-20T02:03:28;24.20;;;16.88;;
6757;SDS011;3416;53.074;8.822;2022-11-20T02:05:55;23.85;;;16.20;;
6757;SDS011;3416;53.074;8.822;2022-11-20T02:08:26;27.15;;;15.85;;
6757;SDS011;3416;53.074;8.822;2022-11-20T02:10:55;24.20;;;16.90;;
6757;SDS011;3416;53.074;8.822;2022-11-20T02:13:24;24.27;;;16.80;;
6757;SDS011;3416;53.074;8.822;2022-11-20T02:16:10;26.38;;;16.92;;
6757;SDS011;3416;53.074;8.822;2022-11-20T02:18:40;22.77;;;15.90;;
6757;SDS011;3416;53.074;8.822;2022-11-20T02:21:09;20.50;;;16.13;;
6757;SDS011;3416;53.074;8.822;2022-11-20T02:23:51;24.35;;;15.90;;
6757;SDS011;3416;53.074;8.822;2022-11-20T02:26:28;30.30;;;16.27;;
6757;SDS011;3416;53.074;8.822;2022-11-20T02:28:58;27.55;;;17.13;;
6757;SDS011;3416;53.074;8.822;2022-11-20T02:31:26;22.92;;;16.65;;
6757;SDS011;3416;53.074;8.822;2022-11-20T02:33:56;28.60;;;17.83;;
6757;SDS011;3416;53.074;8.822;2022-11-20T02:36:26;21.95;;;14.65;;
6757;SDS011;3416;53.074;8.822;2022-11-20T02:38:55;19.27;;;14.52;;
6757;SDS011;3416;53.074;8.822;2022-11-20T02:41:22;22.55;;;16.08;;
6757;SDS011;3416;53.074;8.822;2022-11-20T02:43:57;27.83;;;19.65;;
6757;SDS011;3416;53.074;8.822;2022-11-20T02:46:24;24.48;;;17.80;;
6757;SDS011;3416;53.074;8.822;2022-11-20T02:48:51;28.52;;;20.05;;
6757;SDS011;3416;53.074;8.822;2022-11-20T02:51:19;29.63;;;19.02;;
6757;SDS011;3416;53.074;8.822;2022-11-20T02:53:46;29.20;;;19.30;;
6757;SDS011;3416;53.074;8.822;2022-11-20T02:56:14;26.52;;;18.42;;
6757;SDS011;3416;53.074;8.822;2022-11-20T02:58:42;27.40;;;17.33;;
6757;SDS011;3416;53.074;8.822;2022-11-20T03:01:09;26.10;;;18.67;;
6757;SDS011;3416;53.074;8.822;2022-11-20T03:03:36;26.63;;;18.05;;
6757;SDS011;3416;53.074;8.822;2022-11-20T03:06:03;25.80;;;18.55;;
6757;SDS011;3416;53.074;8.822;2022-11-20T03:08:30;32.28;;;18.85;;
6757;SDS011;3416;53.074;8.822;2022-11-20T03:10:57;27.10;;;17.48;;
6757;SDS011;3416;53.074;8.822;2022-11-20T03:13:30;26.67;;;17.63;;
6757;SDS011;3416;53.074;8.822;2022-11-20T03:15:57;29.38;;;18.58;;
6757;SDS011;3416;53.074;8.822;2022-11-20T03:18:27;25.95;;;17.15;;
6757;SDS011;3416;53.074;8.822;2022-11-20T03:20:56;19.65;;;14.75;;
6757;SDS011;3416;53.074;8.822;2022-11-20T03:23:24;19.92;;;15.65;;
6757;SDS011;3416;53.074;8.822;2022-11-20T03:25:51;23.73;;;15.23;;
6757;SDS011;3416;53.074;8.822;2022-11-20T03:28:18;19.50;;;17.30;;
6757;SDS011;3416;53.074;8.822;2022-11-20T03:30:47;21.92;;;15.02;;
6757;SDS011;3416;53.074;8.822;2022-11-20T03:33:15;25.83;;;15.98;;
6757;SDS011;3416;53.074;8.822;2022-11-20T03:35:41;19.55;;;15.52;;
6757;SDS011;3416;53.074;8.822;2022-11-20T03:38:09;19.20;;;14.35;;
6757;SDS011;3416;53.074;8.822;2022-11-20T03:40:36;20.98;;;13.30;;
6757;SDS011;3416;53.074;8.822;2022-11-20T03:43:03;25.23;;;14.68;;
6757;SDS011;3416;53.074;8.822;2022-11-20T03:45:30;23.00;;;13.70;;
6757;SDS011;3416;53.074;8.822;2022-11-20T03:47:59;21.50;;;13.98;;
6757;SDS011;3416;53.074;8.822;2022-11-20T03:50:25;16.90;;;13.52;;
6757;SDS011;3416;53.074;8.822;2022-11-20T03:52:52;20.13;;;12.65;;
6757;SDS011;3416;53.074;8.822;2022-11-20T03:55:19;16.45;;;11.65;;
6757;SDS011;3416;53.074;8.822;2022-11-20T03:57:46;19.55;;;11.80;;
6757;SDS011;3416;53.074;8.822;2022-11-20T04:00:14;12.90;;;11.13;;
6757;SDS011;3416;53.074;8.822;2022-11-20T04:02:41;19.52;;;12.75;;
6757;SDS011;3416;53.074;8.822;2022-11-20T04:05:09;20.63;;;11.95;;
6757;SDS011;3416;53.074;8.822;2022-11-20T04:07:36;14.40;;;11.10;;
6757;SDS011;3416;53.074;8.822;2022-11-20T04:10:03;16.00;;;10.90;;
6757;SDS011;3416;53.074;8.822;2022-11-20T04:12:32;16.05;;;10.77;;
6757;SDS011;3416;53.074;8.822;2022-11-20T04:14:59;13.85;;;10.73;;
6757;SDS011;3416;53.074;8.822;2022-11-20T04:17:26;15.55;;;11.38;;
6757;SDS011;3416;53.074;8.822;2022-11-20T04:19:53;13.00;;;9.65;;
6757;SDS011;3416;53.074;8.822;2022-11-20T04:22:22;17.02;;;11.23;;
6757;SDS011;3416;53.074;8.822;2022-11-20T04:24:49;14.35;;;10.25;;
6757;SDS011;3416;53.074;8.822;2022-11-20T04:27:16;13.73;;;9.77;;
6757;SDS011;3416;53.074;8.822;2022-11-20T04:29:43;14.95;;;10.55;;
6757;SDS011;3416;53.074;8.822;2022-11-20T04:32:10;18.40;;;10.48;;
6757;SDS011;3416;53.074;8.822;2022-11-20T04:34:37;15.32;;;9.93;;
6757;SDS011;3416;53.074;8.822;2022-11-20T04:37:04;14.15;;;10.45;;
6757;SDS011;3416;53.074;8.822;2022-11-20T04:39:32;12.98;;;8.90;;
6757;SDS011;3416;53.074;8.822;2022-11-20T04:41:59;12.77;;;10.00;;
6757;SDS011;3416;53.074;8.822;2022-11-20T04:44:43;21.88;;;11.32;;
6757;SDS011;3416;53.074;8.822;2022-11-20T04:47:10;18.35;;;10.60;;
6757;SDS011;3416;53.074;8.822;2022-11-20T04:49:37;16.50;;;10.98;;
6757;SDS011;3416;53.074;8.822;2022-11-20T04:52:08;16.25;;;9.50;;
6757;SDS011;3416;53.074;8.822;2022-11-20T04:54:39;13.32;;;11.15;;
6757;SDS011;3416;53.074;8.822;2022-11-20T04:57:06;13.10;;;10.00;;
6757;SDS011;3416;53.074;8.822;2022-11-20T04:59:33;11.70;;;9.85;;
6757;SDS011;3416;53.074;8.822;2022-11-20T05:02:00;14.40;;;10.65;;
6757;SDS011;3416;53.074;8.822;2022-11-20T05:04:27;14.90;;;10.60;;
6757;SDS011;3416;53.074;8.822;2022-11-20T05:06:54;19.77;;;10.68;;
6757;SDS011;3416;53.074;8.822;2022-11-20T05:09:21;17.70;;;10.60;;
6757;SDS011;3416;53.074;8.822;2022-11-20T05:11:50;14.63;;;9.88;;
6757;SDS011;3416;53.074;8.822;2022-11-20T05:14:17;13.75;;;10.43;;
6757;SDS011;3416;53.074;8.822;2022-11-20T05:16:44;11.70;;;7.82;;
6757;SDS011;3416;53.074;8.822;2022-11-20T05:19:11;14.50;;;9.40;;
6757;SDS011;3416;53.074;8.822;2022-11-20T05:21:38;12.95;;;9.63;;
6757;SDS011;3416;53.074;8.822;2022-11-20T05:24:05;10.60;;;8.15;;
6757;SDS011;3416;53.074;8.822;2022-11-20T05:26:32;13.07;;;9.82;;
6757;SDS011;3416;53.074;8.822;2022-11-20T05:29:00;13.43;;;9.07;;
6757;SDS011;3416;53.074;8.822;2022-11-20T05:31:27;15.70;;;9.88;;
6757;SDS011;3416;53.074;8.822;2022-11-20T05:33:55;13.07;;;10.40;;
6757;SDS011;3416;53.074;8.822;2022-11-20T05:36:23;15.77;;;10.07;;
6757;SDS011;3416;53.074;8.822;2022-11-20T05:38:50;14.15;;;10.60;;
6757;SDS011;3416;53.074;8.822;2022-11-20T05:41:18;14.20;;;8.70;;
6757;SDS011;3416;53.074;8.822;2022-11-20T05:43:46;10.45;;;8.82;;
6757;SDS011;3416;53.074;8.822;2022-11-20T05:46:17;11.68;;;10.13;;
6757;SDS011;3416;53.074;8.822;2022-11-20T05:48:45;11.52;;;8.77;;
6757;SDS011;3416;53.074;8.822;2022-11-20T05:51:14;17.50;;;10.40;;
6757;SDS011;3416;53.074;8.822;2022-11-20T05:53:43;13.73;;;9.75;;
6757;SDS011;3416;53.074;8.822;2022-11-20T05:56:11;14.07;;;9.68;;
6757;SDS011;3416;53.074;8.822;2022-11-20T05:58:39;13.60;;;9.65;;
6757;SDS011;3416;53.074;8.822;2022-11-20T06:01:06;13.15;;;9.82;;
6757;SDS011;3416;53.074;8.822;2022-11-20T06:03:36;11.57;;;10.40;;
6757;SDS011;3416;53.074;8.822;2022-11-20T06:06:04;12.80;;;9.75;;
6757;SDS011;3416;53.074;8.822;2022-11-20T06:08:33;14.93;;;10.07;;
6757;SDS011;3416;53.074;8.822;2022-11-20T06:11:04;10.25;;;9.15;;
6757;SDS011;3416;53.074;8.822;2022-11-20T06:13:32;16.33;;;9.32;;
6757;SDS011;3416;53.074;8.822;2022-11-20T06:16:00;14.52;;;10.55;;
6757;SDS011;3416;53.074;8.822;2022-11-20T06:18:28;15.30;;;11.10;;
6757;SDS011;3416;53.074;8.822;2022-11-20T06:21:01;10.02;;;7.85;;
6757;SDS011;3416;53.074;8.822;2022-11-20T06:23:29;14.43;;;9.63;;
6757;SDS011;3416;53.074;8.822;2022-11-20T06:25:57;12.80;;;9.10;;
6757;SDS011;3416;53.074;8.822;2022-11-20T06:28:24;15.32;;;11.35;;
6757;SDS011;3416;53.074;8.822;2022-11-20T06:30:51;13.57;;;9.95;;
6757;SDS011;3416;53.074;8.822;2022-11-20T06:33:18;12.82;;;10.32;;
6757;SDS011;3416;53.074;8.822;2022-11-20T06:35:45;13.75;;;9.80;;
6757;SDS011;3416;53.074;8.822;2022-11-20T06:38:13;15.43;;;9.90;;
6757;SDS011;3416;53.074;8.822;2022-11-20T06:40:40;14.70;;;9.95;;
6757;SDS011;3416;53.074;8.822;2022-11-20T06:43:08;14.55;;;9.95;;
6757;SDS011;3416;53.074;8.822;2022-11-20T06:45:35;15.60;;;10.75;;
6757;SDS011;3416;53.074;8.822;2022-11-20T06:48:04;17.55;;;12.23;;
6757;SDS011;3416;53.074;8.822;2022-11-20T06:50:31;17.33;;;10.45;;
6757;SDS011;3416;53.074;8.822;2022-11-20T06:53:00;14.00;;;10.38;;
6757;SDS011;3416;53.074;8.822;2022-11-20T06:55:32;17.58;;;10.30;;
6757;SDS011;3416;53.074;8.822;2022-11-20T06:58:00;16.58;;;12.13;;
6757;SDS011;3416;53.074;8.822;2022-11-20T07:00:27;20.75;;;13.18;;
6757;SDS011;3416;53.074;8.822;2022-11-20T07:02:54;19.75;;;12.40;;
6757;SDS011;3416;53.074;8.822;2022-11-20T07:05:22;15.52;;;12.52;;
6757;SDS011;3416;53.074;8.822;2022-11-20T07:07:51;16.35;;;10.55;;
6757;SDS011;3416;53.074;8.822;2022-11-20T07:10:20;16.05;;;10.40;;
6757;SDS011;3416;53.074;8.822;2022-11-20T07:12:50;14.00;;;10.50;;
6757;SDS011;3416;53.074;8.822;2022-11-20T07:15:18;14.40;;;9.65;;
6757;SDS011;3416;53.074;8.822;2022-11-20T07:17:46;19.83;;;11.57;;
6757;SDS011;3416;53.074;8.822;2022-11-20T07:20:14;12.90;;;8.98;;
6757;SDS011;3416;53.074;8.822;2022-11-20T07:22:41;17.92;;;10.05;;
6757;SDS011;3416;53.074;8.822;2022-11-20T07:25:09;14.43;;;10.13;;
6757;SDS011;3416;53.074;8.822;2022-11-20T07:27:36;15.57;;;10.77;;
6757;SDS011;3416;53.074;8.822;2022-11-20T07:30:05;17.67;;;11.63;;
6757;SDS011;3416;53.074;8.822;2022-11-20T07:32:33;17.27;;;11.32;;
6757;SDS011;3416;53.074;8.822;2022-11-20T07:35:01;17.27;;;12.15;;
6757;SDS011;3416;53.074;8.822;2022-11-20T07:37:28;15.40;;;11.60;;
6757;SDS011;3416;53.074;8.822;2022-11-20T07:39:55;12.07;;;9.93;;
6757;SDS011;3416;53.074;8.822;2022-11-20T07:42:22;18.95;;;10.00;;
6757;SDS011;3416;53.074;8.822;2022-11-20T07:44:52;17.80;;;12.43;;
6757;SDS011;3416;53.074;8.822;2022-11-20T07:47:21;13.20;;;9.88;;
6757;SDS011;3416;53.074;8.822;2022-11-20T07:49:48;16.88;;;11.35;;
6757;SDS011;3416;53.074;8.822;2022-11-20T07:52:15;15.73;;;11.52;;
6757;SDS011;3416;53.074;8.822;2022-11-20T07:54:42;18.67;;;11.40;;
6757;SDS011;3416;53.074;8.822;2022-11-20T07:57:09;18.45;;;12.25;;
6757;SDS011;3416;53.074;8.822;2022-11-20T07:59:35;18.38;;;12.40;;
6757;SDS011;3416;53.074;8.822;2022-11-20T08:02:03;17.30;;;11.38;;
6757;SDS011;3416;53.074;8.822;2022-11-20T08:04:32;16.33;;;11.35;;
6757;SDS011;3416;53.074;8.822;2022-11-20T08:07:02;16.58;;;12.90;;
6757;SDS011;3416;53.074;8.822;2022-11-20T08:09:29;16.70;;;11.23;;
6757;SDS011;3416;53.074;8.822;2022-11-20T08:11:57;14.85;;;11.50;;
6757;SDS011;3416;53.074;8.822;2022-11-20T08:14:43;15.07;;;11.73;;
6757;SDS011;3416;53.074;8.822;2022-11-20T08:17:10;18.05;;;12.43;;
6757;SDS011;3416;53.074;8.822;2022-11-20T08:19:38;16.42;;;11.73;;
6757;SDS011;3416;53.074;8.822;2022-11-20T08:22:05;18.95;;;13.35;;
6757;SDS011;3416;53.074;8.822;2022-11-20T08:24:32;15.95;;;11.43;;
6757;SDS011;3416;53.074;8.822;2022-11-20T08:27:00;13.10;;;11.48;;
6757;SDS011;3416;53.074;8.822;2022-11-20T08:29:27;14.55;;;11.13;;
6757;SDS011;3416;53.074;8.822;2022-11-20T08:31:54;20.08;;;11.68;;
6757;SDS011;3416;53.074;8.822;2022-11-20T08:34:21;14.70;;;10.82;;
6757;SDS011;3416;53.074;8.822;2022-11-20T08:36:49;16.65;;;10.55;;
6757;SDS011;3416;53.074;8.822;2022-11-20T08:39:16;14.52;;;10.90;;
6757;SDS011;3416;53.074;8.822;2022-11-20T08:41:43;17.50;;;10.00;;
6757;SDS011;3416;53.074;8.822;2022-11-20T08:44:10;16.40;;;11.75;;
6757;SDS011;3416;53.074;8.822;2022-11-20T08:46:38;13.45;;;10.70;;
6757;SDS011;3416;53.074;8.822;2022-11-20T08:49:09;17.92;;;12.80;;
6757;SDS011;3416;53.074;8.822;2022-11-20T08:51:38;18.15;;;12.45;;
6757;SDS011;3416;53.074;8.822;2022-11-20T08:54:07;13.93;;;11.60;;
6757;SDS011;3416;53.074;8.822;2022-11-20T08:56:34;15.98;;;10.95;;
6757;SDS011;3416;53.074;8.822;2022-11-20T08:59:02;15.30;;;11.95;;
6757;SDS011;3416;53.074;8.822;2022-11-20T09:01:31;13.43;;;10.73;;
6757;SDS011;3416;53.074;8.822;2022-11-20T09:03:59;19.13;;;11.50;;
6757;SDS011;3416;53.074;8.822;2022-11-20T09:06:26;20.20;;;11.73;;
6757;SDS011;3416;53.074;8.822;2022-11-20T09:08:53;17.20;;;11.75;;
6757;SDS011;3416;53.074;8.822;2022-11-20T09:11:22;16.70;;;11.68;;
6757;SDS011;3416;53.074;8.822;2022-11-20T09:13:49;22.70;;;13.13;;
6757;SDS011;3416;53.074;8.822;2022-11-20T09:16:17;15.55;;;11.70;;
6757;SDS011;3416;53.074;8.822;2022-11-20T09:18:44;19.02;;;12.45;;
6757;SDS011;3416;53.074;8.822;2022-11-20T09:21:17;14.23;;;10.90;;
6757;SDS011;3416;53.074;8.822;2022-11-20T09:23:44;13.95;;;10.75;;
6757;SDS011;3416;53.074;8.822;2022-11-20T09:26:12;12.75;;;10.95;;
6757;SDS011;3416;53.074;8.822;2022-11-20T09:28:49;16.65;;;10.68;;
6757;SDS011;3416;53.074;8.822;2022-11-20T09:31:17;17.80;;;11.73;;
6757;SDS011;3416;53.074;8.822;2022-11-20T09:33:48;15.70;;;11.07;;
6757;SDS011;3416;53.074;8.822;2022-11-20T09:36:15;13.52;;;11.32;;
6757;SDS011;3416;53.074;8.822;2022-11-20T09:38:43;13.57;;;10.95;;
6757;SDS011;3416;53.074;8.822;2022-11-20T09:41:16;15.00;;;11.00;;
6757;SDS011;3416;53.074;8.822;2022-11-20T09:44:04;17.48;;;13.40;;
6757;SDS011;3416;53.074;8.822;2022-11-20T09:46:45;16.55;;;11.93;;
6757;SDS011;3416;53.074;8.822;2022-11-20T09:49:22;16.15;;;11.70;;
6757;SDS011;3416;53.074;8.822;2022-11-20T09:51:58;18.98;;;12.32;;
6757;SDS011;3416;53.074;8.822;2022-11-20T09:54:27;15.63;;;11.50;;
6757;SDS011;3416;53.074;8.822;2022-11-20T09:56:58;16.55;;;12.05;;
6757;SDS011;3416;53.074;8.822;2022-11-20T09:59:31;20.27;;;13.50;;
6757;SDS011;3416;53.074;8.822;2022-11-20T10:02:02;21.00;;;13.63;;
6757;SDS011;3416;53.074;8.822;2022-11-20T10:04:42;14.93;;;12.20;;
6757;SDS011;3416;53.074;8.822;2022-11-20T10:07:15;24.75;;;15.55;;
6757;SDS011;3416;53.074;8.822;2022-11-20T10:09:49;19.83;;;13.20;;
6757;SDS011;3416;53.074;8.822;2022-11-20T10:12:19;18.05;;;13.73;;
6757;SDS011;3416;53.074;8.822;2022-11-20T10:15:00;20.73;;;14.00;;
6757;SDS011;3416;53.074;8.822;2022-11-20T10:17:48;18.40;;;13.98;;
6757;SDS011;3416;53.074;8.822;2022-11-20T10:20:27;17.67;;;13.40;;
6757;SDS011;3416;53.074;8.822;2022-11-20T10:23:02;19.65;;;14.15;;
6757;SDS011;3416;53.074;8.822;2022-11-20T10:25:50;16.30;;;13.13;;
6757;SDS011;3416;53.074;8.822;2022-11-20T10:28:28;18.17;;;14.65;;
6757;SDS011;3416;53.074;8.822;2022-11-20T10:31:10;18.25;;;13.23;;
6757;SDS011;3416;53.074;8.822;2022-11-20T10:33:51;18.95;;;13.93;;
6757;SDS011;3416;53.074;8.822;2022-11-20T10:36:21;23.98;;;15.45;;
6757;SDS011;3416;53.074;8.822;2022-11-20T10:38:54;21.55;;;15.13;;
6757;SDS011;3416;53.074;8.822;2022-11-20T10:41:25;21.02;;;15.30;;
6757;SDS011;3416;53.074;8.822;2022-11-20T10:43:59;19.75;;;15.23;;
6757;SDS011;3416;53.074;8.822;2022-11-20T10:46:32;25.02;;;18.58;;
6757;SDS011;3416;53.074;8.822;2022-11-20T10:49:04;23.83;;;17.17;;
6757;SDS011;3416;53.074;8.822;2022-11-20T10:51:38;24.65;;;17.50;;
6757;SDS011;3416;53.074;8.822;2022-11-20T10:54:17;23.77;;;16.80;;
6757;SDS011;3416;53.074;8.822;2022-11-20T10:56:51;22.17;;;15.30;;
6757;SDS011;3416;53.074;8.822;2022-11-20T10:59:35;20.42;;;14.90;;
6757;SDS011;3416;53.074;8.822;2022-11-20T11:02:34;19.63;;;14.90;;
6757;SDS011;3416;53.074;8.822;2022-11-20T11:05:10;19.60;;;15.73;;
6757;SDS011;3416;53.074;8.822;2022-11-20T11:07:41;22.63;;;15.90;;
6757;SDS011;3416;53.074;8.822;2022-11-20T11:10:14;21.55;;;15.20;;
6757;SDS011;3416;53.074;8.822;2022-11-20T11:12:44;19.80;;;13.90;;
6757;SDS011;3416;53.074;8.822;2022-11-20T11:15:13;19.42;;;14.75;;
6757;SDS011;3416;53.074;8.822;2022-11-20T11:17:52;22.70;;;16.02;;
6757;SDS011;3416;53.074;8.822;2022-11-20T11:20:20;27.00;;;16.08;;
6757;SDS011;3416;53.074;8.822;2022-11-20T11:22:48;27.52;;;14.43;;
6757;SDS011;3416;53.074;8.822;2022-11-20T11:25:20;23.33;;;16.33;;
6757;SDS011;3416;53.074;8.822;2022-11-20T11:27:50;17.63;;;14.48;;
6757;SDS011;3416;53.074;8.822;2022-11-20T11:30:18;23.58;;;17.08;;
6757;SDS011;3416;53.074;8.822;2022-11-20T11:32:46;23.15;;;16.27;;
6757;SDS011;3416;53.074;8.822;2022-11-20T11:35:25;17.75;;;15.07;;
6757;SDS011;3416;53.074;8.822;2022-11-20T11:37:54;24.98;;;17.30;;
6757;SDS011;3416;53.074;8.822;2022-11-20T11:40:32;20.10;;;14.73;;
6757;SDS011;3416;53.074;8.822;2022-11-20T11:43:02;16.08;;;12.50;;
6757;SDS011;3416;53.074;8.822;2022-11-20T11:45:54;23.33;;;13.48;;
6757;SDS011;3416;53.074;8.822;2022-11-20T11:48:21;17.45;;;14.75;;
6757;SDS011;3416;53.074;8.822;2022-11-20T11:50:50;16.60;;;12.88;;
6757;SDS011;3416;53.074;8.822;2022-11-20T11:53:17;19.27;;;14.05;;
6757;SDS011;3416;53.074;8.822;2022-11-20T11:55:47;15.02;;;12.32;;
6757;SDS011;3416;53.074;8.822;2022-11-20T11:58:23;18.02;;;12.15;;
6757;SDS011;3416;53.074;8.822;2022-11-20T12:01:07;17.35;;;12.00;;
6757;SDS011;3416;53.074;8.822;2022-11-20T12:03:44;20.35;;;14.10;;
6757;SDS011;3416;53.074;8.822;2022-11-20T12:06:22;21.10;;;12.70;;
6757;SDS011;3416;53.074;8.822;2022-11-20T12:08:52;18.08;;;11.57;;
6757;SDS011;3416;53.074;8.822;2022-11-20T12:11:25;16.65;;;11.75;;
6757;SDS011;3416;53.074;8.822;2022-11-20T12:14:00;13.45;;;10.75;;
6757;SDS011;3416;53.074;8.822;2022-11-20T12:16:37;18.40;;;12.65;;
6757;SDS011;3416;53.074;8.822;2022-11-20T12:19:08;14.30;;;9.18;;
6757;SDS011;3416;53.074;8.822;2022-11-20T12:21:42;19.13;;;11.32;;
6757;SDS011;3416;53.074;8.822;2022-11-20T12:27:21;14.07;;;9.13;;
6757;SDS011;3416;53.074;8.822;2022-11-20T12:30:08;11.45;;;9.10;;
6757;SDS011;3416;53.074;8.822;2022-11-20T12:35:42;12.75;;;10.32;;
6757;SDS011;3416;53.074;8.822;2022-11-20T12:38:39;25.90;;;15.98;;
6757;SDS011;3416;53.074;8.822;2022-11-20T12:41:23;22.80;;;17.23;;
6757;SDS011;3416;53.074;8.822;2022-11-20T12:44:27;14.65;;;9.35;;
6757;SDS011;3416;53.074;8.822;2022-11-20T12:47:20;15.18;;;9.27;;
6757;SDS011;3416;53.074;8.822;2022-11-20T12:50:00;12.73;;;8.70;;
6757;SDS011;3416;53.074;8.822;2022-11-20T12:52:37;10.20;;;7.55;;
6757;SDS011;3416;53.074;8.822;2022-11-20T12:55:12;10.93;;;8.68;;
6757;SDS011;3416;53.074;8.822;2022-11-20T12:57:50;12.77;;;9.10;;
6757;SDS011;3416;53.074;8.822;2022-11-20T13:00:21;13.68;;;10.15;;
6757;SDS011;3416;53.074;8.822;2022-11-20T13:03:01;13.43;;;8.80;;
6757;SDS011;3416;53.074;8.822;2022-11-20T13:05:52;12.30;;;9.57;;
6757;SDS011;3416;53.074;8.822;2022-11-20T13:08:27;9.57;;;8.43;;
6757;SDS011;3416;53.074;8.822;2022-11-20T13:11:01;14.77;;;9.48;;
6757;SDS011;3416;53.074;8.822;2022-11-20T13:13:35;13.77;;;9.85;;
6757;SDS011;3416;53.074;8.822;2022-11-20T13:16:10;16.95;;;11.80;;
6757;SDS011;3416;53.074;8.822;2022-11-20T13:18:45;13.63;;;9.60;;
6757;SDS011;3416;53.074;8.822;2022-11-20T13:21:16;13.95;;;8.85;;
6757;SDS011;3416;53.074;8.822;2022-11-20T13:23:44;16.90;;;12.48;;
6757;SDS011;3416;53.074;8.822;2022-11-20T13:26:17;17.08;;;10.13;;
6757;SDS011;3416;53.074;8.822;2022-11-20T13:28:47;13.88;;;10.93;;
6757;SDS011;3416;53.074;8.822;2022-11-20T13:31:29;14.10;;;11.00;;
6757;SDS011;3416;53.074;8.822;2022-11-20T13:33:59;10.77;;;9.07;;
6757;SDS011;3416;53.074;8.822;2022-11-20T13:36:29;16.67;;;11.95;;
6757;SDS011;3416;53.074;8.822;2022-11-20T13:38:57;14.27;;;10.50;;
6757;SDS011;3416;53.074;8.822;2022-11-20T13:41:27;14.82;;;11.52;;
6757;SDS011;3416;53.074;8.822;2022-11-20T13:43:58;15.40;;;11.02;;
6757;SDS011;3416;53.074;8.822;2022-11-20T13:46:35;14.85;;;10.70;;
6757;SDS011;3416;53.074;8.822;2022-11-20T13:49:08;16.70;;;11.45;;
6757;SDS011;3416;53.074;8.822;2022-11-20T13:51:40;15.75;;;13.00;;
6757;SDS011;3416;53.074;8.822;2022-11-20T13:54:19;17.40;;;11.18;;
6757;SDS011;3416;53.074;8.822;2022-11-20T13:57:04;15.20;;;10.40;;
6757;SDS011;3416;53.074;8.822;2022-11-20T13:59:43;13.65;;;11.70;;
6757;SDS011;3416;53.074;8.822;2022-11-20T14:02:22;16.05;;;12.98;;
6757;SDS011;3416;53.074;8.822;2022-11-20T14:04:52;16.05;;;11.88;;
6757;SDS011;3416;53.074;8.822;2022-11-20T14:07:23;12.88;;;10.90;;
6757;SDS011;3416;53.074;8.822;2022-11-20T14:09:55;17.23;;;12.43;;
6757;SDS011;3416;53.074;8.822;2022-11-20T14:12:28;15.88;;;12.60;;
6757;SDS011;3416;53.074;8.822;2022-11-20T14:14:56;14.75;;;11.27;;
6757;SDS011;3416;53.074;8.822;2022-11-20T14:17:28;15.20;;;12.23;;
6757;SDS011;3416;53.074;8.822;2022-11-20T14:19:58;20.10;;;12.48;;
6757;SDS011;3416;53.074;8.822;2022-11-20T14:22:27;16.88;;;12.05;;
6757;SDS011;3416;53.074;8.822;2022-11-20T14:25:02;14.32;;;11.13;;
6757;SDS011;3416;53.074;8.822;2022-11-20T14:27:34;16.00;;;12.20;;
6757;SDS011;3416;53.074;8.822;2022-11-20T14:30:04;17.60;;;14.57;;
6757;SDS011;3416;53.074;8.822;2022-11-20T14:32:32;18.40;;;13.95;;
6757;SDS011;3416;53.074;8.822;2022-11-20T14:35:02;19.02;;;12.13;;
6757;SDS011;3416;53.074;8.822;2022-11-20T14:37:36;16.17;;;13.18;;
6757;SDS011;3416;53.074;8.822;2022-11-20T14:40:05;20.88;;;12.75;;
6757;SDS011;3416;53.074;8.822;2022-11-20T14:42:50;18.48;;;11.52;;
6757;SDS011;3416;53.074;8.822;2022-11-20T14:45:17;21.42;;;15.40;;
6757;SDS011;3416;53.074;8.822;2022-11-20T14:47:45;16.80;;;13.13;;
6757;SDS011;3416;53.074;8.822;2022-11-20T14:50:14;16.80;;;12.35;;
6757;SDS011;3416;53.074;8.822;2022-11-20T14:52:51;18.98;;;12.88;;
6757;SDS011;3416;53.074;8.822;2022-11-20T14:55:29;19.30;;;12.75;;
6757;SDS011;3416;53.074;8.822;2022-11-20T14:58:00;16.35;;;12.63;;
6757;SDS011;3416;53.074;8.822;2022-11-20T15:00:29;17.83;;;13.07;;
6757;SDS011;3416;53.074;8.822;2022-11-20T15:02:57;19.67;;;14.60;;
6757;SDS011;3416;53.074;8.822;2022-11-20T15:05:25;18.58;;;14.23;;
6757;SDS011;3416;53.074;8.822;2022-11-20T15:08:10;18.65;;;14.57;;
6757;SDS011;3416;53.074;8.822;2022-11-20T15:10:38;16.95;;;13.63;;
6757;SDS011;3416;53.074;8.822;2022-11-20T15:13:13;17.60;;;14.05;;
6757;SDS011;3416;53.074;8.822;2022-11-20T15:15:44;22.33;;;15.95;;
6757;SDS011;3416;53.074;8.822;2022-11-20T15:18:14;17.30;;;13.60;;
6757;SDS011;3416;53.074;8.822;2022-11-20T15:20:42;16.48;;;14.25;;